Time;durP1;ratioP1;P1;durP2;ratioP2;P2;SDS_P1;SDS_P2;PMS_P1;PMS_P2;Temp;Humidity;BMP_temperature;BMP_pressure;BME280_temperature;BME280_humidity;BME280_pressure;Samples;Min_cycle;Max_cycle;Signal;HPM_P1;HPM_P2
2023/09/15 00:01:19;;;;;;;7.10;5.90;;;;;;;15.89;95.36;97187.55;111797;1244;22528;-76
2023/09/15 00:03:47;;;;;;;10.80;6.00;;;;;;;15.88;95.19;97188.96;111805;1244;24311;-76
2023/09/15 00:06:16;;;;;;;9.20;5.60;;;;;;;15.88;95.35;97192.80;111832;1241;25223;-76
2023/09/15 00:08:47;;;;;;;7.60;6.20;;;;;;;15.91;95.56;97193.80;111821;1244;22516;-76
2023/09/15 00:11:19;;;;;;;9.10;6.50;;;;;;;15.91;95.40;97193.74;111822;1244;22507;-76
2023/09/15 00:13:47;;;;;;;8.40;6.50;;;;;;;15.86;95.02;97196.02;111797;1244;22490;-76
2023/09/15 00:16:17;;;;;;;9.50;7.20;;;;;;;15.81;95.01;97195.38;111837;1244;22571;-76
2023/09/15 00:18:44;;;;;;;;;;;;;;;15.79;95.06;97192.48;111849;1244;22479;-76
2023/09/15 00:21:14;;;;;;;8.20;6.60;;;;;;;15.74;95.17;97190.58;111826;1244;27712;-76
2023/09/15 00:23:43;;;;;;;10.10;7.60;;;;;;;15.69;95.14;97191.97;111825;1244;24352;-76
2023/09/15 00:26:12;;;;;;;10.40;7.40;;;;;;;15.68;95.17;97191.23;111839;1244;22522;-76
2023/09/15 00:28:41;;;;;;;9.10;6.80;;;;;;;15.71;95.40;97185.40;111789;1244;22507;-76
2023/09/15 00:31:12;;;;;;;9.00;6.80;;;;;;;15.74;95.46;97186.03;111841;1244;22499;-76
2023/09/15 00:33:40;;;;;;;8.20;6.80;;;;;;;15.74;95.28;97189.02;111824;1244;22511;-76
2023/09/15 00:36:08;;;;;;;9.50;6.20;;;;;;;15.68;95.30;97188.88;111787;1244;22514;-76
2023/09/15 00:38:37;;;;;;;9.30;6.40;;;;;;;15.66;95.46;97190.69;111787;1244;24587;-76
2023/09/15 00:41:05;;;;;;;11.10;6.80;;;;;;;15.68;95.55;97193.91;111808;1244;22612;-76
2023/09/15 00:43:35;;;;;;;10.00;6.40;;;;;;;15.69;95.63;97192.92;111816;1244;22509;-76
2023/09/15 00:46:04;;;;;;;9.90;6.80;;;;;;;15.66;95.56;97192.41;111846;1244;22631;-76
2023/09/15 00:48:33;;;;;;;9.90;6.80;;;;;;;15.60;95.71;97193.51;111830;1244;22498;-76
2023/09/15 00:51:06;;;;;;;10.10;7.10;;;;;;;15.60;95.93;97196.71;111806;1244;22518;-76
2023/09/15 00:53:39;;;;;;;9.30;6.40;;;;;;;15.65;96.26;97201.08;111856;1244;22524;-76
2023/09/15 00:56:09;;;;;;;7.60;5.30;;;;;;;15.69;96.58;97201.91;111811;1244;22487;-76
2023/09/15 00:58:40;;;;;;;8.60;5.90;;;;;;;15.73;96.86;97202.67;111816;1244;22539;-76
2023/09/15 01:01:16;;;;;;;9.60;6.10;;;;;;;15.77;96.82;97197.90;111831;1244;22511;-76
2023/09/15 01:03:45;;;;;;;9.00;6.30;;;;;;;15.79;96.83;97202.31;111822;1244;22527;-76
2023/09/15 01:06:19;;;;;;;10.80;6.00;;;;;;;15.79;96.86;97203.27;111821;1244;24179;-76
2023/09/15 01:08:48;;;;;;;6.90;5.20;;;;;;;15.75;96.78;97200.23;111798;1244;22514;-76
2023/09/15 01:11:17;;;;;;;7.20;5.30;;;;;;;15.75;96.91;97205.04;111855;1244;24211;-76
2023/09/15 01:13:48;;;;;;;6.80;5.60;;;;;;;15.76;97.09;97202.46;111812;1244;24249;-76
2023/09/15 01:16:30;;;;;;;7.90;5.40;;;;;;;15.78;97.22;97201.48;111828;1244;25221;-76
2023/09/15 01:19:09;;;;;;;7.60;5.70;;;;;;;15.81;97.40;97203.55;111799;1244;22514;-76
2023/09/15 01:21:54;;;;;;;8.10;5.50;;;;;;;15.82;97.41;97204.39;111837;1244;22598;-76
2023/09/15 01:24:46;;;;;;;12.10;7.00;;;;;;;15.81;97.46;97200.23;111844;1244;23023;-76
2023/09/15 01:27:41;;;;;;;9.40;6.90;;;;;;;15.79;97.33;97205.27;111793;1244;22711;-76
2023/09/15 01:30:11;;;;;;;7.70;6.00;;;;;;;15.75;97.36;97209.16;111804;1244;22543;-76
2023/09/15 01:32:43;;;;;;;7.20;6.30;;;;;;;15.71;97.47;97206.73;111874;1244;25246;-76
2023/09/15 01:35:13;;;;;;;8.00;6.20;;;;;;;15.70;97.62;97208.84;111847;1244;22587;-76
2023/09/15 01:37:44;;;;;;;13.50;7.50;;;;;;;15.72;97.87;97209.33;111791;1244;25276;-76
2023/09/15 01:40:13;;;;;;;8.80;7.10;;;;;;;15.72;97.86;97211.56;111850;1244;22551;-76
2023/09/15 01:42:43;;;;;;;10.80;7.40;;;;;;;15.69;97.66;97209.70;111824;1244;22552;-76
2023/09/15 01:45:11;;;;;;;9.70;7.50;;;;;;;15.67;97.76;97214.72;111811;1244;22697;-76
2023/09/15 01:47:41;;;;;;;11.60;7.70;;;;;;;15.66;97.81;97217.38;111800;1244;25318;-76
2023/09/15 01:50:11;;;;;;;9.90;7.10;;;;;;;15.65;97.88;97216.96;111817;1244;22512;-76
2023/09/15 01:52:41;;;;;;;10.00;7.50;;;;;;;15.65;97.91;97216.48;111868;1244;25273;-76
2023/09/15 01:55:10;;;;;;;8.80;7.10;;;;;;;15.64;98.02;97220.13;111825;1244;22505;-76
2023/09/15 01:57:38;;;;;;;9.60;7.50;;;;;;;15.64;98.06;97214.84;111807;1244;22514;-75
2023/09/15 02:00:14;;;;;;;9.30;7.10;;;;;;;15.62;97.89;97216.09;111789;1244;22503;-75
2023/09/15 02:02:42;;;;;;;12.10;7.80;;;;;;;15.62;98.01;97216.96;111828;1244;22519;-76
2023/09/15 02:05:17;;;;;;;9.30;7.30;;;;;;;15.60;97.93;97213.66;111857;1244;22519;-75
2023/09/15 02:07:45;;;;;;;9.20;8.30;;;;;;;15.59;98.14;97212.70;111832;1244;22554;-75
2023/09/15 02:10:16;;;;;;;11.70;7.80;;;;;;;15.58;98.05;97211.44;111836;1244;23903;-75
2023/09/15 02:12:44;;;;;;;10.50;8.30;;;;;;;15.55;98.01;97215.44;111840;1244;22504;-76
2023/09/15 02:15:13;;;;;;;9.60;8.10;;;;;;;15.51;98.06;97217.19;111825;1244;22557;-76
2023/09/15 02:17:43;;;;;;;9.10;8.00;;;;;;;15.50;98.32;97214.96;111819;1244;22535;-76
2023/09/15 02:20:11;;;;;;;11.70;8.60;;;;;;;15.49;98.46;97215.35;111928;1244;22512;-76
2023/09/15 02:22:42;;;;;;;10.50;8.50;;;;;;;15.48;98.55;97215.56;111828;1244;23314;-76
2023/09/15 02:25:10;;;;;;;10.50;8.30;;;;;;;15.47;98.59;97215.85;111831;1244;22502;-75
2023/09/15 02:27:39;;;;;;;11.80;8.20;;;;;;;15.47;98.74;97214.88;111826;1244;22607;-75
2023/09/15 02:30:09;;;;;;;11.90;8.40;;;;;;;15.47;98.81;97218.15;111826;1244;22497;-76
2023/09/15 02:32:38;;;;;;;12.50;8.70;;;;;;;15.44;98.78;97216.38;111856;1244;24364;-75
2023/09/15 02:35:08;;;;;;;10.90;8.40;;;;;;;15.42;98.89;97222.28;111816;1244;23214;-75
2023/09/15 02:37:36;;;;;;;10.50;8.20;;;;;;;15.42;99.09;97218.13;111823;1243;22521;-76
2023/09/15 02:40:07;;;;;;;10.00;7.70;;;;;;;15.42;99.05;97225.02;111816;1244;22513;-76
2023/09/15 02:42:36;;;;;;;10.00;7.80;;;;;;;15.42;99.12;97227.52;111827;1244;22534;-76
2023/09/15 02:45:06;;;;;;;11.10;8.50;;;;;;;15.41;99.29;97226.86;111828;1244;23185;-76
2023/09/15 02:47:34;;;;;;;12.00;8.70;;;;;;;15.40;99.28;97228.27;111846;1244;22503;-76
2023/09/15 02:50:03;;;;;;;11.90;9.20;;;;;;;15.38;99.34;97226.38;111867;1244;24266;-75
2023/09/15 02:52:31;;;;;;;12.40;8.90;;;;;;;15.36;99.45;97229.09;111831;1244;22509;-76
2023/09/15 02:55:04;;;;;;;10.90;8.50;;;;;;;15.36;99.53;97236.09;111840;1244;25232;-76
2023/09/15 02:57:32;;;;;;;11.30;8.70;;;;;;;15.36;99.81;97232.77;111810;1244;22518;-76
2023/09/15 03:00:07;;;;;;;12.40;8.80;;;;;;;15.35;99.77;97231.57;111827;1244;24178;-76
2023/09/15 03:02:35;;;;;;;12.60;8.70;;;;;;;15.37;99.83;97231.27;111835;1244;22930;-76
2023/09/15 03:05:05;;;;;;;10.60;8.70;;;;;;;15.39;99.97;97232.93;111845;1244;25353;-76
2023/09/15 03:07:36;;;;;;;10.60;9.50;;;;;;;15.40;99.96;97232.22;111809;1244;22559;-76
2023/09/15 03:10:05;;;;;;;10.60;9.30;;;;;;;15.39;99.92;97232.71;111816;1244;22492;-76
2023/09/15 03:12:33;;;;;;;12.00;9.50;;;;;;;15.39;99.92;97233.73;111825;1244;22507;-76
2023/09/15 03:15:04;;;;;;;10.90;9.80;;;;;;;15.37;99.89;97231.52;111859;1244;23773;-76
2023/09/15 03:17:33;;;;;;;14.40;11.30;;;;;;;15.37;99.98;97232.34;111788;1244;24241;-76
2023/09/15 03:20:09;;;;;;;12.90;10.80;;;;;;;15.36;99.96;97235.23;111836;1244;23216;-76
2023/09/15 03:22:37;;;;;;;12.90;11.50;;;;;;;15.34;100.00;97236.34;111824;1244;23026;-76
2023/09/15 03:25:06;;;;;;;12.10;10.20;;;;;;;15.33;100.00;97237.45;111856;1244;22519;-76
2023/09/15 03:27:35;;;;;;;13.70;10.20;;;;;;;15.33;100.00;97234.20;111801;1244;22527;-76
2023/09/15 03:30:04;;;;;;;13.20;10.10;;;;;;;15.33;100.00;97233.77;111808;1244;22607;-77
2023/09/15 03:32:32;;;;;;;;;;;;;;;15.32;100.00;97238.45;111849;1244;22494;-76
2023/09/15 03:35:05;;;;;;;12.60;9.60;;;;;;;15.33;100.00;97234.63;111817;1244;24239;-76
2023/09/15 03:37:34;;;;;;;12.80;10.90;;;;;;;15.33;100.00;97235.52;111809;1244;22917;-76
2023/09/15 03:40:04;;;;;;;12.60;11.30;;;;;;;15.31;100.00;97232.27;111841;1244;22492;-77
2023/09/15 03:42:34;;;;;;;12.20;10.90;;;;;;;15.30;100.00;97231.73;111851;1244;22512;-77
2023/09/15 03:45:03;;;;;;;13.20;11.80;;;;;;;15.31;100.00;97237.39;111853;1244;22573;-77
2023/09/15 03:47:32;;;;;;;13.70;12.00;;;;;;;15.30;100.00;97236.72;111851;1244;22541;-77
2023/09/15 03:50:01;;;;;;;13.10;10.60;;;;;;;15.29;100.00;97236.24;111792;1244;22509;-77
2023/09/15 03:52:32;;;;;;;12.50;11.00;;;;;;;15.29;100.00;97237.52;111825;1244;22500;-76
2023/09/15 03:55:02;;;;;;;15.00;11.70;;;;;;;15.28;100.00;97242.79;111824;1244;22514;-76
2023/09/15 03:57:30;;;;;;;13.00;11.50;;;;;;;15.26;100.00;97243.45;111823;1244;22566;-77
2023/09/15 04:00:03;;;;;;;13.20;11.60;;;;;;;15.26;100.00;97248.17;111790;1244;22511;-76
2023/09/15 04:02:31;;;;;;;13.50;11.00;;;;;;;15.26;100.00;97249.12;111848;1244;25313;-77
2023/09/15 04:05:01;;;;;;;13.40;12.00;;;;;;;15.26;100.00;97248.86;111822;1244;22536;-76
2023/09/15 04:07:29;;;;;;;14.70;13.20;;;;;;;15.26;100.00;97250.67;111820;1244;22601;-77
2023/09/15 04:09:58;;;;;;;15.60;14.00;;;;;;;15.23;100.00;97251.97;111829;1244;22451;-77
2023/09/15 04:12:26;;;;;;;15.40;13.60;;;;;;;15.21;100.00;97251.95;111825;1244;26564;-77
2023/09/15 04:14:54;;;;;;;13.20;11.60;;;;;;;15.23;100.00;97255.39;111790;1244;24336;-77
2023/09/15 04:17:22;;;;;;;13.30;10.60;;;;;;;15.24;100.00;97258.73;111814;1244;22528;-77
2023/09/15 04:19:53;;;;;;;14.50;11.80;;;;;;;15.20;100.00;97261.89;111808;1244;22646;-76
2023/09/15 04:22:21;;;;;;;13.10;11.70;;;;;;;15.14;100.00;97260.16;111844;1244;22542;-77
2023/09/15 04:24:52;;;;;;;15.30;11.80;;;;;;;15.11;100.00;97260.59;111840;1244;22555;-77
2023/09/15 04:27:20;;;;;;;15.00;11.60;;;;;;;15.09;100.00;97264.58;111794;1244;26555;-77
2023/09/15 04:29:56;;;;;;;14.80;12.10;;;;;;;15.10;100.00;97263.53;111811;1244;22517;-77
2023/09/15 04:32:24;;;;;;;13.80;12.40;;;;;;;15.13;100.00;97264.98;111805;1244;22502;-77
2023/09/15 04:34:54;;;;;;;15.80;12.50;;;;;;;15.15;100.00;97268.67;111816;1244;23627;-77
2023/09/15 04:37:23;;;;;;;12.70;11.30;;;;;;;15.15;100.00;97269.96;111807;1244;22488;-77
2023/09/15 04:39:51;;;;;;;14.80;12.80;;;;;;;15.14;100.00;97270.52;111851;1244;22583;-76
2023/09/15 04:42:20;;;;;;;13.80;12.30;;;;;;;15.13;100.00;97270.16;111821;1244;22541;-77
2023/09/15 04:44:48;;;;;;;16.10;12.90;;;;;;;15.12;100.00;97270.93;111481;1244;22444;-77
2023/09/15 04:47:31;;;;;;;14.50;13.00;;;;;;;15.12;100.00;97273.07;111626;1244;24454;-77
2023/09/15 04:50:01;;;;;;;17.20;14.40;;;;;;;15.14;100.00;97280.67;111750;1244;22513;-76
2023/09/15 04:52:30;;;;;;;17.60;14.00;;;;;;;15.14;100.00;97283.66;111689;1244;25484;-76
2023/09/15 04:55:01;;;;;;;16.80;15.10;;;;;;;15.13;100.00;97287.52;111530;1243;64092;-76
2023/09/15 04:57:29;;;;;;;15.70;14.10;;;;;;;15.15;100.00;97285.67;111561;1244;25412;-76
2023/09/15 04:59:58;;;;;;;16.00;13.70;;;;;;;15.13;100.00;97288.95;111705;1244;26464;-76
2023/09/15 05:02:30;;;;;;;15.80;14.20;;;;;;;15.14;100.00;97288.90;111764;1244;22602;-76
2023/09/15 05:05:02;;;;;;;16.90;14.20;;;;;;;15.14;100.00;97289.27;111757;1244;22685;-76
2023/09/15 05:07:31;;;;;;;18.80;14.10;;;;;;;15.13;100.00;97291.96;111728;1244;22542;-76
2023/09/15 05:10:00;;;;;;;17.10;15.30;;;;;;;15.14;100.00;97292.58;111772;1244;24184;-76
2023/09/15 05:12:28;;;;;;;;;;;;;;;15.16;100.00;97297.19;111898;1244;22470;-76
2023/09/15 05:15:00;;;;;;;15.20;13.60;;;;;;;15.20;100.00;97297.09;111877;1244;22495;-76
2023/09/15 05:17:29;;;;;;;16.20;14.60;;;;;;;15.26;100.00;97300.04;111808;1244;24243;-76
2023/09/15 05:19:58;;;;;;;16.80;13.60;;;;;;;15.33;100.00;97301.32;111799;1244;22494;-76
2023/09/15 05:22:26;;;;;;;16.30;14.20;;;;;;;15.41;100.00;97300.11;111833;1228;22500;-76
2023/09/15 05:24:57;;;;;;;16.50;13.80;;;;;;;15.45;100.00;97301.91;111835;1244;22529;-76
2023/09/15 05:27:26;;;;;;;18.30;15.90;;;;;;;15.44;100.00;97300.70;111790;1244;25277;-76
2023/09/15 05:29:58;;;;;;;18.10;16.30;;;;;;;15.43;100.00;97301.20;111808;1244;23597;-76
2023/09/15 05:32:29;;;;;;;18.30;14.90;;;;;;;15.39;100.00;97302.88;111786;1244;22485;-76
2023/09/15 05:35:00;;;;;;;18.50;16.40;;;;;;;15.35;100.00;97307.00;111826;1244;22638;-76
2023/09/15 05:37:32;;;;;;;18.80;16.90;;;;;;;15.29;100.00;97310.15;111835;1244;22502;-77
2023/09/15 05:40:00;;;;;;;18.30;16.40;;;;;;;15.23;100.00;97311.20;111819;1244;22564;-77
2023/09/15 05:42:29;;;;;;;17.00;15.20;;;;;;;15.19;100.00;97310.17;111812;1244;22558;-77
2023/09/15 05:44:59;;;;;;;19.70;17.70;;;;;;;15.18;100.00;97312.55;111806;1244;22593;-77
2023/09/15 05:47:28;;;;;;;20.30;17.70;;;;;;;15.16;100.00;97313.59;111795;1244;22600;-77
2023/09/15 05:50:00;;;;;;;19.70;17.70;;;;;;;15.14;100.00;97314.27;111794;1229;22511;-77
2023/09/15 05:52:29;;;;;;;19.00;16.90;;;;;;;15.14;100.00;97320.27;111841;1244;22499;-76
2023/09/15 05:54:57;;;;;;;19.20;17.10;;;;;;;15.18;100.00;97318.27;111779;1244;25917;-77
2023/09/15 05:57:26;;;;;;;18.50;16.40;;;;;;;15.33;100.00;97320.50;111761;1244;22516;-77
2023/09/15 05:59:54;;;;;;;17.90;16.10;;;;;;;15.47;100.00;97324.55;111800;1244;25503;-77
2023/09/15 06:02:22;;;;;;;17.50;15.80;;;;;;;15.58;100.00;97327.55;111713;1244;22563;-76
2023/09/15 06:04:53;;;;;;;17.20;15.40;;;;;;;15.61;100.00;97330.11;111821;1244;22508;-77
2023/09/15 06:07:21;;;;;;;16.80;14.90;;;;;;;15.59;100.00;97330.03;111799;1244;25485;-76
2023/09/15 06:09:49;;;;;;;16.50;14.80;;;;;;;15.55;100.00;97333.46;111830;1244;23332;-76
2023/09/15 06:12:20;;;;;;;18.00;16.30;;;;;;;15.52;100.00;97332.55;111836;1244;22514;-77
2023/09/15 06:14:48;;;;;;;16.50;15.00;;;;;;;15.48;100.00;97328.77;111845;1244;22514;-76
2023/09/15 06:17:17;;;;;;;18.40;16.30;;;;;;;15.44;100.00;97330.20;111797;1244;23306;-76
2023/09/15 06:19:45;;;;;;;18.20;15.30;;;;;;;15.44;100.00;97326.20;111825;1244;22559;-77
2023/09/15 06:22:13;;;;;;;17.50;15.70;;;;;;;15.52;100.00;97327.00;111832;1244;24259;-76
2023/09/15 06:24:41;;;;;;;18.00;16.10;;;;;;;15.73;100.00;97328.44;111792;1244;22499;-77
2023/09/15 06:27:10;;;;;;;18.10;16.20;;;;;;;16.00;100.00;97326.58;111794;1244;22508;-76
2023/09/15 06:29:40;;;;;;;18.10;16.30;;;;;;;16.20;100.00;97330.00;111750;1244;22559;-76
2023/09/15 06:32:08;;;;;;;17.30;15.60;;;;;;;16.40;100.00;97332.12;111840;1244;22507;-77
2023/09/15 06:34:38;;;;;;;17.30;15.60;;;;;;;16.57;100.00;97332.66;111817;1244;23798;-77
2023/09/15 06:37:06;;;;;;;16.10;14.50;;;;;;;16.72;100.00;97337.40;111814;1244;22489;-77
2023/09/15 06:39:35;;;;;;;16.60;14.90;;;;;;;16.68;99.48;97338.77;111811;1244;24201;-77
2023/09/15 06:42:04;;;;;;;15.00;13.40;;;;;;;16.73;99.50;97340.18;111821;1244;22501;-77
2023/09/15 06:44:33;;;;;;;;;;;;;;;16.79;99.26;97339.84;111820;1244;22478;-76
2023/09/15 06:47:02;;;;;;;14.80;13.30;;;;;;;17.41;100.00;97333.10;111849;1244;22705;-76
2023/09/15 06:49:32;;;;;;;12.80;11.40;;;;;;;18.21;100.00;97332.45;111864;1244;22509;-76
2023/09/15 06:52:00;;;;;;;12.50;11.10;;;;;;;18.49;99.70;97328.20;111856;1244;22482;-74
2023/09/15 06:54:31;;;;;;;10.70;9.60;;;;;;;18.90;98.95;97326.19;111592;1244;22522;-74
2023/09/15 06:56:59;;;;;;;16.70;10.90;;;;;;;19.17;96.67;97328.88;111851;1244;22527;-74
2023/09/15 06:59:30;;;;;;;9.90;8.60;;;;;;;19.11;94.97;97332.98;111817;1244;24253;-74
2023/09/15 07:01:59;;;;;;;11.80;8.30;;;;;;;19.04;94.00;97332.75;111841;1244;26438;-74
2023/09/15 07:04:29;;;;;;;11.20;9.10;;;;;;;19.03;93.22;97331.30;111855;1244;22625;-75
2023/09/15 07:06:58;;;;;;;9.60;8.50;;;;;;;19.13;93.08;97332.98;111843;1244;22506;-73
2023/09/15 07:09:29;;;;;;;8.70;7.80;;;;;;;19.53;94.23;97330.63;111790;1244;22527;-77
2023/09/15 07:11:57;;;;;;;8.10;7.30;;;;;;;20.06;93.36;97327.66;111645;1244;22526;-78
2023/09/15 07:14:25;;;;;;;8.20;7.40;;;;;;;20.46;91.98;97330.20;111555;1244;23983;-78
2023/09/15 07:16:54;;;;;;;9.50;7.60;;;;;;;20.75;90.47;97332.27;111604;1244;22552;-79
2023/09/15 07:19:23;;;;;;;8.00;7.20;;;;;;;20.86;89.81;97332.34;111722;1244;22522;-78
2023/09/15 07:21:51;;;;;;;8.90;7.70;;;;;;;21.10;90.13;97337.10;111691;1244;25480;-78
2023/09/15 07:24:19;;;;;;;8.80;7.00;;;;;;;21.45;89.53;97332.91;111699;1244;25557;-78
2023/09/15 07:26:48;;;;;;;8.00;7.30;;;;;;;21.20;86.97;97334.25;111824;1244;22498;-79
2023/09/15 07:29:16;;;;;;;8.30;6.70;;;;;;;21.04;86.51;97332.00;111670;1244;22474;-78
2023/09/15 07:31:44;;;;;;;6.80;6.20;;;;;;;20.65;85.07;97333.73;111832;1244;22495;-78
2023/09/15 07:34:12;;;;;;;8.30;6.50;;;;;;;20.55;86.00;97330.05;111798;1244;22511;-78
2023/09/15 07:36:41;;;;;;;16.70;6.50;;;;;;;20.81;86.23;97331.27;111850;1238;22509;-78
2023/09/15 07:39:12;;;;;;;7.20;6.00;;;;;;;20.73;84.03;97331.91;111653;1244;181361;-78
2023/09/15 07:41:40;;;;;;;7.20;5.60;;;;;;;20.20;82.55;97333.98;111833;1238;24212;-78
2023/09/15 07:44:11;;;;;;;7.20;6.00;;;;;;;19.74;82.71;97336.38;111866;1244;22486;-78
2023/09/15 07:46:40;;;;;;;7.70;5.50;;;;;;;19.41;82.82;97339.14;111833;1244;22505;-78
2023/09/15 07:49:08;;;;;;;6.80;5.30;;;;;;;19.20;83.25;97344.11;111796;1244;25324;-78
2023/09/15 07:51:37;;;;;;;5.60;5.10;;;;;;;19.03;83.85;97345.11;111798;1236;24237;-78
2023/09/15 07:54:05;;;;;;;9.90;8.20;;;;;;;19.32;85.32;97345.21;111832;1244;23859;-78
2023/09/15 07:56:34;;;;;;;7.80;6.10;;;;;;;19.78;84.59;97344.64;111811;1244;22626;-78
2023/09/15 07:59:03;;;;;;;8.20;5.70;;;;;;;20.11;83.49;97344.46;111685;1244;22797;-77
2023/09/15 08:01:31;;;;;;;6.70;5.60;;;;;;;20.32;82.67;97344.63;111644;1244;22482;-78
2023/09/15 08:04:02;;;;;;;5.90;5.30;;;;;;;20.59;83.09;97344.73;111793;1244;22528;-78
2023/09/15 08:06:31;;;;;;;8.30;5.50;;;;;;;20.50;80.77;97349.02;111730;1244;25290;-78
2023/09/15 08:09:00;;;;;;;5.90;5.30;;;;;;;20.29;81.38;97348.30;111819;1243;25250;-78
2023/09/15 08:11:30;;;;;;;7.60;5.20;;;;;;;20.26;81.57;97344.85;111835;1244;22492;-77
2023/09/15 08:14:00;;;;;;;6.30;4.90;;;;;;;20.17;81.13;97351.51;111768;1244;22547;-77
2023/09/15 08:16:29;;;;;;;6.60;4.70;;;;;;;20.08;81.50;97347.83;111487;1244;22588;-77
2023/09/15 08:18:58;;;;;;;7.00;5.10;;;;;;;20.48;82.24;97351.24;111568;1244;25267;-77
2023/09/15 08:21:26;;;;;;;;;;;;;;;20.90;81.97;97349.66;111574;1244;22462;-77
2023/09/15 08:23:55;;;;;;;6.10;4.50;;;;;;;21.24;81.47;97347.19;111724;1244;22496;-78
2023/09/15 08:26:23;;;;;;;8.00;5.40;;;;;;;21.49;80.65;97344.41;111726;1244;22522;-77
2023/09/15 08:28:51;;;;;;;7.40;4.50;;;;;;;21.68;79.23;97342.14;111722;1244;22538;-77
2023/09/15 08:31:20;;;;;;;3.60;3.10;;;;;;;21.78;78.26;97344.10;111798;1241;24155;-77
2023/09/15 08:33:48;;;;;;;3.70;3.20;;;;;;;21.92;77.89;97342.12;111828;1244;22524;-77
2023/09/15 08:36:19;;;;;;;4.70;3.60;;;;;;;22.05;77.02;97344.79;111843;1244;22489;-77
2023/09/15 08:38:47;;;;;;;4.70;3.40;;;;;;;22.15;77.09;97343.33;111803;1244;22485;-77
2023/09/15 08:41:21;;;;;;;5.30;3.50;;;;;;;22.34;76.88;97343.27;111822;1244;23179;-77
2023/09/15 08:43:50;;;;;;;3.50;2.60;;;;;;;22.36;75.63;97343.47;111852;1243;22501;-77
2023/09/15 08:46:19;;;;;;;4.00;3.00;;;;;;;22.36;74.93;97344.86;111888;1244;26431;-77
2023/09/15 08:48:49;;;;;;;;;;;;;;;22.38;73.97;97348.85;111901;1244;23934;-77
2023/09/15 08:51:22;;;;;;;3.80;2.00;;;;;;;22.27;73.34;97347.66;111817;1244;22515;-77
2023/09/15 08:53:52;;;;;;;2.20;1.90;;;;;;;22.02;72.41;97349.56;111870;1244;23829;-77
2023/09/15 08:56:21;;;;;;;3.70;2.20;;;;;;;21.72;72.58;97352.33;111878;1243;23179;-77
2023/09/15 08:58:50;;;;;;;3.70;2.40;;;;;;;21.77;72.81;97352.27;111841;1244;22564;-77
2023/09/15 09:01:19;;;;;;;2.60;2.10;;;;;;;21.69;72.80;97350.37;111825;1244;24241;-77
2023/09/15 09:03:48;;;;;;;3.10;2.20;;;;;;;21.65;71.98;97354.75;111797;1244;24210;-77
2023/09/15 09:06:18;;;;;;;4.10;2.60;;;;;;;21.38;71.27;97355.80;111818;1240;25173;-77
2023/09/15 09:08:47;;;;;;;3.90;1.90;;;;;;;21.26;71.41;97353.13;111804;1244;22505;-77
2023/09/15 09:11:16;;;;;;;2.70;2.20;;;;;;;21.14;70.98;97355.58;111827;1244;22549;-77
2023/09/15 09:13:52;;;;;;;3.90;2.50;;;;;;;21.02;71.24;97351.05;111829;1244;22627;-77
2023/09/15 09:16:22;;;;;;;4.70;2.70;;;;;;;21.14;72.01;97352.58;111818;1244;22551;-77
2023/09/15 09:19:03;;;;;;;4.50;2.50;;;;;;;21.46;72.16;97351.39;111828;1244;22556;-76
2023/09/15 09:21:33;;;;;;;3.50;2.80;;;;;;;21.68;71.39;97342.46;111845;1244;22495;-76
2023/09/15 09:24:03;;;;;;;6.30;3.10;;;;;;;21.83;71.40;97339.42;111875;1244;22518;-77
2023/09/15 09:26:33;;;;;;;5.10;3.20;;;;;;;22.06;71.27;97340.06;111849;1244;22518;-77
2023/09/15 09:29:02;;;;;;;4.60;3.00;;;;;;;22.18;70.62;97341.33;111847;1244;25448;-77
2023/09/15 09:31:32;;;;;;;3.90;2.70;;;;;;;22.32;70.60;97342.02;111832;1244;22516;-77
2023/09/15 09:34:04;;;;;;;4.10;2.70;;;;;;;22.43;70.28;97344.40;111847;1231;22505;-77
2023/09/15 09:36:32;;;;;;;5.10;3.10;;;;;;;22.43;69.28;97347.64;111812;1244;22906;-76
2023/09/15 09:39:04;;;;;;;4.20;3.00;;;;;;;22.20;68.10;97351.58;111795;1244;27628;-77
2023/09/15 09:41:33;;;;;;;3.80;2.60;;;;;;;22.03;68.18;97353.93;111824;1244;25305;-77
2023/09/15 09:44:04;;;;;;;4.10;3.00;;;;;;;22.06;68.57;97354.66;111830;1244;22657;-76
2023/09/15 09:46:36;;;;;;;5.10;2.80;;;;;;;22.00;68.12;97354.75;111831;1244;22481;-76
2023/09/15 09:49:07;;;;;;;4.10;2.90;;;;;;;21.87;67.17;97355.15;111836;1244;22538;-76
2023/09/15 09:51:37;;;;;;;3.90;2.70;;;;;;;21.50;66.11;97357.09;111817;1244;22598;-77
2023/09/15 09:54:11;;;;;;;3.70;2.90;;;;;;;21.22;66.08;97357.27;111866;1244;24339;-76
2023/09/15 09:56:47;;;;;;;6.50;3.40;;;;;;;21.15;66.33;97352.43;111852;1244;22490;-76
2023/09/15 09:59:16;;;;;;;4.40;3.00;;;;;;;21.08;66.20;97355.86;111808;1244;22522;-76
2023/09/15 10:01:45;;;;;;;5.90;3.10;;;;;;;21.05;65.42;97354.86;111830;1244;22473;-76
2023/09/15 10:04:15;;;;;;;3.70;3.10;;;;;;;20.80;64.67;97355.05;111871;1244;22491;-76
2023/09/15 10:06:46;;;;;;;4.50;3.30;;;;;;;20.71;64.65;97359.23;111840;1244;22506;-76
2023/09/15 10:09:15;;;;;;;4.20;3.20;;;;;;;20.54;64.66;97355.33;111815;1244;22509;-77
2023/09/15 10:11:46;;;;;;;4.70;3.20;;;;;;;20.35;64.97;97349.60;111830;1244;25194;-77
2023/09/15 10:14:16;;;;;;;6.80;3.20;;;;;;;20.46;65.78;97349.45;111829;1244;22519;-77
2023/09/15 10:16:49;;;;;;;4.90;3.00;;;;;;;20.56;65.47;97345.42;111844;1244;23788;-77
2023/09/15 10:19:18;;;;;;;4.90;3.90;;;;;;;20.52;65.31;97343.21;111787;1244;22557;-77
2023/09/15 10:21:48;;;;;;;4.90;3.70;;;;;;;20.41;64.42;97336.70;111843;1244;22512;-77
2023/09/15 10:24:17;;;;;;;4.40;3.30;;;;;;;20.23;65.09;97337.79;111875;1243;24355;-78
2023/09/15 10:26:47;;;;;;;6.20;3.60;;;;;;;20.16;65.52;97333.92;111817;1244;22604;-78
2023/09/15 10:29:17;;;;;;;5.80;3.80;;;;;;;20.18;66.61;97337.30;111803;1244;25161;-78
2023/09/15 10:31:47;;;;;;;5.70;3.40;;;;;;;20.42;66.78;97338.34;111843;1244;25274;-78
2023/09/15 10:34:16;;;;;;;;;;;;;;;20.66;66.60;97343.50;111834;1243;22469;-78
2023/09/15 10:36:46;;;;;;;4.10;3.30;;;;;;;20.94;66.77;97339.27;111853;1244;22611;-79
2023/09/15 10:39:18;;;;;;;4.70;3.30;;;;;;;21.23;66.85;97333.73;111826;1244;22502;-79
2023/09/15 10:41:47;;;;;;;5.10;3.40;;;;;;;21.36;66.02;97333.91;111835;1244;22611;-80
2023/09/15 10:44:16;;;;;;;6.20;3.70;;;;;;;21.49;65.82;97330.82;111858;1244;22502;-80
2023/09/15 10:46:45;;;;;;;6.80;3.50;;;;;;;21.51;65.12;97329.34;111862;1244;24044;-80
2023/09/15 10:49:18;;;;;;;7.00;4.30;;;;;;;21.49;64.60;97335.92;111813;1243;22515;-80
2023/09/15 10:51:54;;;;;;;7.00;3.70;;;;;;;21.32;63.58;97339.34;111878;1244;22506;-80
2023/09/15 10:54:26;;;;;;;5.90;4.00;;;;;;;21.38;64.21;97335.20;111811;1244;24704;-80
2023/09/15 10:56:57;;;;;;;6.90;3.60;;;;;;;21.45;63.96;97331.14;111873;1244;22514;-79
2023/09/15 10:59:29;;;;;;;5.40;3.20;;;;;;;21.33;62.94;97335.34;111823;1244;22564;-80
2023/09/15 11:02:00;;;;;;;3.90;3.20;;;;;;;20.86;62.22;97338.79;111817;1244;22502;-80
2023/09/15 11:04:29;;;;;;;4.70;2.90;;;;;;;20.68;64.00;97339.02;111839;1244;22484;-80
2023/09/15 11:07:02;;;;;;;4.10;3.20;;;;;;;20.81;64.83;97338.37;111860;1243;23941;-81
2023/09/15 11:09:31;;;;;;;4.30;3.20;;;;;;;20.74;64.54;97337.48;111842;1244;22743;-81
2023/09/15 11:12:03;;;;;;;5.70;3.30;;;;;;;20.53;64.20;97337.67;111850;1243;22493;-81
2023/09/15 11:14:31;;;;;;;4.60;3.40;;;;;;;20.35;64.57;97337.91;111850;1236;22506;-81
2023/09/15 11:17:03;;;;;;;4.90;3.70;;;;;;;20.10;64.45;97339.80;111847;1244;22585;-81
2023/09/15 11:19:33;;;;;;;4.20;3.20;;;;;;;19.90;65.09;97341.55;111782;1244;22512;-81
2023/09/15 11:22:04;;;;;;;5.80;3.80;;;;;;;20.08;66.54;97338.52;111882;1244;25244;-81
2023/09/15 11:24:33;;;;;;;4.40;3.50;;;;;;;20.44;66.93;97339.45;111863;1244;25394;-81
2023/09/15 11:27:04;;;;;;;;;;;;;;;20.75;66.20;97335.90;111846;1244;22484;-81
2023/09/15 11:29:33;;;;;;;3.90;3.20;;;;;;;20.89;65.23;97334.39;111787;1244;22507;-81
2023/09/15 11:32:02;;;;;;;3.60;2.80;;;;;;;21.10;65.93;97330.75;111816;1244;24192;-81